sensor_id;sensor_type;location;lat;lon;timestamp;P1;durP1;ratioP1;P2;durP2;ratioP2
11685;SDS011;5899;51.282;6.094;2023-02-04T00:00:34;7.27;;;2.33;;
11685;SDS011;5899;51.282;6.094;2023-02-04T00:03:03;10.80;;;3.08;;
11685;SDS011;5899;51.282;6.094;2023-02-04T00:05:40;9.80;;;2.72;;
11685;SDS011;5899;51.282;6.094;2023-02-04T00:08:09;9.43;;;2.63;;
11685;SDS011;5899;51.282;6.094;2023-02-04T00:10:43;11.10;;;3.42;;
11685;SDS011;5899;51.282;6.094;2023-02-04T00:13:15;8.68;;;2.80;;
11685;SDS011;5899;51.282;6.094;2023-02-04T00:15:45;7.07;;;2.53;;
11685;SDS011;5899;51.282;6.094;2023-02-04T00:18:14;8.43;;;2.50;;
11685;SDS011;5899;51.282;6.094;2023-02-04T00:20:42;8.37;;;2.77;;
11685;SDS011;5899;51.282;6.094;2023-02-04T00:23:13;7.23;;;2.63;;
11685;SDS011;5899;51.282;6.094;2023-02-04T00:25:40;11.98;;;2.88;;
11685;SDS011;5899;51.282;6.094;2023-02-04T00:28:11;10.57;;;3.00;;
11685;SDS011;5899;51.282;6.094;2023-02-04T00:30:38;9.10;;;2.85;;
11685;SDS011;5899;51.282;6.094;2023-02-04T00:33:05;13.07;;;2.90;;
11685;SDS011;5899;51.282;6.094;2023-02-04T00:35:31;7.82;;;2.70;;
11685;SDS011;5899;51.282;6.094;2023-02-04T00:38:01;9.63;;;3.08;;
11685;SDS011;5899;51.282;6.094;2023-02-04T00:40:35;9.40;;;2.72;;
11685;SDS011;5899;51.282;6.094;2023-02-04T00:43:04;8.95;;;2.33;;
11685;SDS011;5899;51.282;6.094;2023-02-04T00:45:40;9.48;;;2.42;;
11685;SDS011;5899;51.282;6.094;2023-02-04T00:48:11;11.25;;;2.85;;
11685;SDS011;5899;51.282;6.094;2023-02-04T00:50:48;9.37;;;2.33;;
11685;SDS011;5899;51.282;6.094;2023-02-04T00:53:14;11.15;;;3.10;;
11685;SDS011;5899;51.282;6.094;2023-02-04T00:55:46;9.85;;;2.85;;
11685;SDS011;5899;51.282;6.094;2023-02-04T00:58:14;8.60;;;2.80;;
11685;SDS011;5899;51.282;6.094;2023-02-04T01:00:42;9.77;;;2.40;;
11685;SDS011;5899;51.282;6.094;2023-02-04T01:03:08;6.90;;;2.20;;
11685;SDS011;5899;51.282;6.094;2023-02-04T01:05:36;11.40;;;2.35;;
11685;SDS011;5899;51.282;6.094;2023-02-04T01:08:03;6.82;;;2.40;;
11685;SDS011;5899;51.282;6.094;2023-02-04T01:10:29;9.77;;;2.83;;
11685;SDS011;5899;51.282;6.094;2023-02-04T01:12:58;8.15;;;2.50;;
11685;SDS011;5899;51.282;6.094;2023-02-04T01:15:39;10.68;;;2.53;;
11685;SDS011;5899;51.282;6.094;2023-02-04T01:18:07;9.65;;;2.90;;
11685;SDS011;5899;51.282;6.094;2023-02-04T01:20:45;9.10;;;3.00;;
11685;SDS011;5899;51.282;6.094;2023-02-04T01:23:19;10.40;;;2.75;;
11685;SDS011;5899;51.282;6.094;2023-02-04T01:25:45;10.35;;;3.15;;
11685;SDS011;5899;51.282;6.094;2023-02-04T01:28:18;8.48;;;2.50;;
11685;SDS011;5899;51.282;6.094;2023-02-04T01:30:46;6.90;;;2.55;;
11685;SDS011;5899;51.282;6.094;2023-02-04T01:33:13;9.23;;;3.50;;
11685;SDS011;5899;51.282;6.094;2023-02-04T01:35:44;7.70;;;3.07;;
11685;SDS011;5899;51.282;6.094;2023-02-04T01:38:12;11.00;;;2.87;;
11685;SDS011;5899;51.282;6.094;2023-02-04T01:40:54;9.17;;;2.63;;
11685;SDS011;5899;51.282;6.094;2023-02-04T01:43:24;6.78;;;2.35;;
11685;SDS011;5899;51.282;6.094;2023-02-04T01:45:53;8.27;;;2.75;;
11685;SDS011;5899;51.282;6.094;2023-02-04T01:48:26;9.00;;;2.92;;
11685;SDS011;5899;51.282;6.094;2023-02-04T01:50:56;7.60;;;2.72;;
11685;SDS011;5899;51.282;6.094;2023-02-04T01:53:25;7.90;;;2.55;;
11685;SDS011;5899;51.282;6.094;2023-02-04T01:55:55;8.38;;;2.30;;
11685;SDS011;5899;51.282;6.094;2023-02-04T01:58:21;9.85;;;2.80;;
11685;SDS011;5899;51.282;6.094;2023-02-04T02:00:55;8.55;;;2.35;;
11685;SDS011;5899;51.282;6.094;2023-02-04T02:03:23;6.93;;;2.90;;
11685;SDS011;5899;51.282;6.094;2023-02-04T02:05:59;6.88;;;2.47;;
11685;SDS011;5899;51.282;6.094;2023-02-04T02:08:33;11.05;;;2.60;;
11685;SDS011;5899;51.282;6.094;2023-02-04T02:11:04;7.55;;;2.38;;
11685;SDS011;5899;51.282;6.094;2023-02-04T02:13:31;8.43;;;2.70;;
11685;SDS011;5899;51.282;6.094;2023-02-04T02:16:05;8.95;;;2.80;;
11685;SDS011;5899;51.282;6.094;2023-02-04T02:18:33;7.88;;;2.90;;
11685;SDS011;5899;51.282;6.094;2023-02-04T02:21:05;8.70;;;2.88;;
11685;SDS011;5899;51.282;6.094;2023-02-04T02:23:54;8.27;;;3.00;;
11685;SDS011;5899;51.282;6.094;2023-02-04T02:26:26;9.52;;;2.63;;
11685;SDS011;5899;51.282;6.094;2023-02-04T02:29:02;10.70;;;2.67;;
11685;SDS011;5899;51.282;6.094;2023-02-04T02:31:32;9.80;;;2.90;;
11685;SDS011;5899;51.282;6.094;2023-02-04T02:33:58;8.95;;;2.63;;
11685;SDS011;5899;51.282;6.094;2023-02-04T02:36:26;7.00;;;2.42;;
11685;SDS011;5899;51.282;6.094;2023-02-04T02:38:57;9.52;;;2.92;;
11685;SDS011;5899;51.282;6.094;2023-02-04T02:41:27;7.60;;;2.47;;
11685;SDS011;5899;51.282;6.094;2023-02-04T02:44:07;9.38;;;2.67;;
11685;SDS011;5899;51.282;6.094;2023-02-04T02:46:48;9.50;;;3.05;;
11685;SDS011;5899;51.282;6.094;2023-02-04T02:49:20;11.27;;;2.67;;
11685;SDS011;5899;51.282;6.094;2023-02-04T02:51:54;9.27;;;3.00;;
11685;SDS011;5899;51.282;6.094;2023-02-04T02:54:28;8.20;;;2.47;;
11685;SDS011;5899;51.282;6.094;2023-02-04T02:56:58;9.43;;;2.45;;
11685;SDS011;5899;51.282;6.094;2023-02-04T02:59:35;4.90;;;2.38;;
11685;SDS011;5899;51.282;6.094;2023-02-04T03:02:08;18.15;;;3.97;;
11685;SDS011;5899;51.282;6.094;2023-02-04T03:04:41;9.95;;;3.10;;
11685;SDS011;5899;51.282;6.094;2023-02-04T03:07:55;9.80;;;2.80;;
11685;SDS011;5899;51.282;6.094;2023-02-04T03:10:21;7.80;;;2.95;;
11685;SDS011;5899;51.282;6.094;2023-02-04T03:13:07;7.97;;;2.50;;
11685;SDS011;5899;51.282;6.094;2023-02-04T03:15:34;10.13;;;2.97;;
11685;SDS011;5899;51.282;6.094;2023-02-04T03:18:11;9.85;;;3.15;;
11685;SDS011;5899;51.282;6.094;2023-02-04T03:20:38;8.13;;;2.93;;
11685;SDS011;5899;51.282;6.094;2023-02-04T03:23:08;7.80;;;3.13;;
11685;SDS011;5899;51.282;6.094;2023-02-04T03:25:38;9.80;;;2.92;;
11685;SDS011;5899;51.282;6.094;2023-02-04T03:28:09;10.23;;;2.60;;
11685;SDS011;5899;51.282;6.094;2023-02-04T03:30:41;9.77;;;3.35;;
11685;SDS011;5899;51.282;6.094;2023-02-04T03:33:19;9.30;;;3.10;;
11685;SDS011;5899;51.282;6.094;2023-02-04T03:35:54;10.38;;;3.28;;
11685;SDS011;5899;51.282;6.094;2023-02-04T03:38:22;10.10;;;2.97;;
11685;SDS011;5899;51.282;6.094;2023-02-04T03:40:51;9.35;;;2.90;;
11685;SDS011;5899;51.282;6.094;2023-02-04T03:43:20;8.00;;;3.33;;
11685;SDS011;5899;51.282;6.094;2023-02-04T03:45:48;9.70;;;3.08;;
11685;SDS011;5899;51.282;6.094;2023-02-04T03:48:24;9.05;;;2.97;;
11685;SDS011;5899;51.282;6.094;2023-02-04T03:50:55;7.68;;;2.92;;
11685;SDS011;5899;51.282;6.094;2023-02-04T03:53:25;11.95;;;3.45;;
11685;SDS011;5899;51.282;6.094;2023-02-04T03:55:57;11.07;;;3.13;;
11685;SDS011;5899;51.282;6.094;2023-02-04T03:58:26;8.40;;;2.50;;
11685;SDS011;5899;51.282;6.094;2023-02-04T04:00:55;7.53;;;3.03;;
11685;SDS011;5899;51.282;6.094;2023-02-04T04:03:23;23.38;;;4.30;;
11685;SDS011;5899;51.282;6.094;2023-02-04T04:05:51;12.43;;;3.28;;
11685;SDS011;5899;51.282;6.094;2023-02-04T04:08:22;12.68;;;3.65;;
11685;SDS011;5899;51.282;6.094;2023-02-04T04:10:59;9.10;;;3.35;;
11685;SDS011;5899;51.282;6.094;2023-02-04T04:13:37;13.73;;;3.92;;
11685;SDS011;5899;51.282;6.094;2023-02-04T04:16:12;8.90;;;2.95;;
11685;SDS011;5899;51.282;6.094;2023-02-04T04:18:48;12.43;;;3.97;;
11685;SDS011;5899;51.282;6.094;2023-02-04T04:21:17;11.38;;;3.35;;
11685;SDS011;5899;51.282;6.094;2023-02-04T04:23:45;12.63;;;3.47;;
11685;SDS011;5899;51.282;6.094;2023-02-04T04:26:25;8.25;;;3.05;;
11685;SDS011;5899;51.282;6.094;2023-02-04T04:29:05;11.57;;;3.60;;
11685;SDS011;5899;51.282;6.094;2023-02-04T04:31:32;10.35;;;3.50;;
11685;SDS011;5899;51.282;6.094;2023-02-04T04:34:17;6.97;;;3.03;;
11685;SDS011;5899;51.282;6.094;2023-02-04T04:36:48;9.27;;;3.28;;
11685;SDS011;5899;51.282;6.094;2023-02-04T04:39:19;15.52;;;4.18;;
11685;SDS011;5899;51.282;6.094;2023-02-04T04:41:54;8.57;;;3.35;;
11685;SDS011;5899;51.282;6.094;2023-02-04T04:44:24;7.55;;;3.38;;
11685;SDS011;5899;51.282;6.094;2023-02-04T04:47:00;8.02;;;3.20;;
11685;SDS011;5899;51.282;6.094;2023-02-04T04:49:29;10.43;;;3.78;;
11685;SDS011;5899;51.282;6.094;2023-02-04T04:52:04;10.90;;;3.43;;
11685;SDS011;5899;51.282;6.094;2023-02-04T04:54:34;8.88;;;3.38;;
11685;SDS011;5899;51.282;6.094;2023-02-04T04:57:02;11.55;;;3.35;;
11685;SDS011;5899;51.282;6.094;2023-02-04T04:59:34;7.07;;;3.83;;
11685;SDS011;5899;51.282;6.094;2023-02-04T05:02:16;5.60;;;3.10;;
11685;SDS011;5899;51.282;6.094;2023-02-04T05:04:48;8.25;;;3.17;;
11685;SDS011;5899;51.282;6.094;2023-02-04T05:07:23;7.97;;;3.40;;
11685;SDS011;5899;51.282;6.094;2023-02-04T05:09:57;14.73;;;3.78;;
11685;SDS011;5899;51.282;6.094;2023-02-04T05:12:30;10.50;;;3.40;;
11685;SDS011;5899;51.282;6.094;2023-02-04T05:14:59;9.38;;;3.65;;
11685;SDS011;5899;51.282;6.094;2023-02-04T05:17:30;12.20;;;3.30;;
11685;SDS011;5899;51.282;6.094;2023-02-04T05:19:57;12.30;;;3.80;;
11685;SDS011;5899;51.282;6.094;2023-02-04T05:22:29;9.23;;;3.13;;
11685;SDS011;5899;51.282;6.094;2023-02-04T05:24:56;12.93;;;3.25;;
11685;SDS011;5899;51.282;6.094;2023-02-04T05:27:30;13.68;;;3.80;;
11685;SDS011;5899;51.282;6.094;2023-02-04T05:30:11;9.32;;;3.95;;
11685;SDS011;5899;51.282;6.094;2023-02-04T05:32:40;8.57;;;3.23;;
11685;SDS011;5899;51.282;6.094;2023-02-04T05:35:07;12.13;;;3.75;;
11685;SDS011;5899;51.282;6.094;2023-02-04T05:37:47;8.57;;;3.50;;
11685;SDS011;5899;51.282;6.094;2023-02-04T05:40:14;13.63;;;3.92;;
11685;SDS011;5899;51.282;6.094;2023-02-04T05:42:46;10.25;;;4.10;;
11685;SDS011;5899;51.282;6.094;2023-02-04T05:45:17;11.85;;;3.90;;
11685;SDS011;5899;51.282;6.094;2023-02-04T05:47:44;10.18;;;3.85;;
11685;SDS011;5899;51.282;6.094;2023-02-04T05:50:10;10.57;;;3.80;;
11685;SDS011;5899;51.282;6.094;2023-02-04T05:52:44;10.20;;;4.13;;
11685;SDS011;5899;51.282;6.094;2023-02-04T05:55:12;9.50;;;4.03;;
11685;SDS011;5899;51.282;6.094;2023-02-04T05:57:50;11.73;;;4.22;;
11685;SDS011;5899;51.282;6.094;2023-02-04T06:00:19;8.77;;;3.83;;
11685;SDS011;5899;51.282;6.094;2023-02-04T06:02:52;11.53;;;4.07;;
11685;SDS011;5899;51.282;6.094;2023-02-04T06:05:32;7.97;;;3.80;;
11685;SDS011;5899;51.282;6.094;2023-02-04T06:08:03;9.38;;;4.50;;
11685;SDS011;5899;51.282;6.094;2023-02-04T06:10:30;9.52;;;4.40;;
11685;SDS011;5899;51.282;6.094;2023-02-04T06:13:00;7.75;;;3.25;;
11685;SDS011;5899;51.282;6.094;2023-02-04T06:21:16;9.82;;;4.00;;
11685;SDS011;5899;51.282;6.094;2023-02-04T06:23:45;8.98;;;3.63;;
11685;SDS011;5899;51.282;6.094;2023-02-04T06:26:19;10.73;;;3.85;;
11685;SDS011;5899;51.282;6.094;2023-02-04T06:28:54;10.98;;;3.90;;
11685;SDS011;5899;51.282;6.094;2023-02-04T06:31:39;7.40;;;3.60;;
11685;SDS011;5899;51.282;6.094;2023-02-04T06:34:05;14.40;;;4.00;;
11685;SDS011;5899;51.282;6.094;2023-02-04T06:36:37;8.80;;;3.45;;
11685;SDS011;5899;51.282;6.094;2023-02-04T06:39:08;6.80;;;3.08;;
11685;SDS011;5899;51.282;6.094;2023-02-04T06:41:36;9.13;;;3.70;;
11685;SDS011;5899;51.282;6.094;2023-02-04T06:46:47;10.45;;;4.32;;
11685;SDS011;5899;51.282;6.094;2023-02-04T06:49:30;11.93;;;4.03;;
11685;SDS011;5899;51.282;6.094;2023-02-04T06:51:59;9.15;;;4.07;;
11685;SDS011;5899;51.282;6.094;2023-02-04T06:54:31;11.68;;;4.63;;
11685;SDS011;5899;51.282;6.094;2023-02-04T06:57:03;11.52;;;4.70;;
11685;SDS011;5899;51.282;6.094;2023-02-04T06:59:32;14.50;;;5.57;;
11685;SDS011;5899;51.282;6.094;2023-02-04T07:02:12;11.07;;;5.43;;
11685;SDS011;5899;51.282;6.094;2023-02-04T07:04:47;13.17;;;5.27;;
11685;SDS011;5899;51.282;6.094;2023-02-04T07:07:19;9.68;;;4.45;;
11685;SDS011;5899;51.282;6.094;2023-02-04T07:09:47;11.18;;;4.53;;
11685;SDS011;5899;51.282;6.094;2023-02-04T07:12:17;16.20;;;4.35;;
11685;SDS011;5899;51.282;6.094;2023-02-04T07:14:48;12.60;;;4.80;;
11685;SDS011;5899;51.282;6.094;2023-02-04T07:17:17;14.30;;;5.68;;
11685;SDS011;5899;51.282;6.094;2023-02-04T07:19:43;12.55;;;4.93;;
11685;SDS011;5899;51.282;6.094;2023-02-04T07:27:52;16.05;;;6.65;;
11685;SDS011;5899;51.282;6.094;2023-02-04T07:30:22;16.98;;;10.25;;
11685;SDS011;5899;51.282;6.094;2023-02-04T07:32:49;16.52;;;8.77;;
11685;SDS011;5899;51.282;6.094;2023-02-04T07:35:18;17.83;;;7.85;;
11685;SDS011;5899;51.282;6.094;2023-02-04T07:37:50;15.55;;;7.93;;
11685;SDS011;5899;51.282;6.094;2023-02-04T07:40:19;15.07;;;7.47;;
11685;SDS011;5899;51.282;6.094;2023-02-04T07:42:55;18.10;;;9.43;;
11685;SDS011;5899;51.282;6.094;2023-02-04T07:45:24;16.13;;;7.63;;
11685;SDS011;5899;51.282;6.094;2023-02-04T07:47:52;17.02;;;7.30;;
11685;SDS011;5899;51.282;6.094;2023-02-04T07:50:24;18.98;;;7.95;;
11685;SDS011;5899;51.282;6.094;2023-02-04T07:52:58;18.58;;;7.47;;
11685;SDS011;5899;51.282;6.094;2023-02-04T07:55:29;19.33;;;8.73;;
11685;SDS011;5899;51.282;6.094;2023-02-04T07:57:57;17.10;;;6.70;;
11685;SDS011;5899;51.282;6.094;2023-02-04T08:00:24;17.48;;;8.65;;
11685;SDS011;5899;51.282;6.094;2023-02-04T08:02:50;22.15;;;8.02;;
11685;SDS011;5899;51.282;6.094;2023-02-04T08:05:23;22.03;;;9.60;;
11685;SDS011;5899;51.282;6.094;2023-02-04T08:07:54;15.63;;;8.88;;
11685;SDS011;5899;51.282;6.094;2023-02-04T08:10:36;23.92;;;8.95;;
11685;SDS011;5899;51.282;6.094;2023-02-04T08:13:18;22.75;;;10.68;;
11685;SDS011;5899;51.282;6.094;2023-02-04T08:15:47;20.60;;;9.98;;
11685;SDS011;5899;51.282;6.094;2023-02-04T08:18:15;22.30;;;9.50;;
11685;SDS011;5899;51.282;6.094;2023-02-04T08:20:48;17.98;;;8.73;;
11685;SDS011;5899;51.282;6.094;2023-02-04T08:23:28;20.43;;;9.40;;
11685;SDS011;5899;51.282;6.094;2023-02-04T08:26:03;22.33;;;8.67;;
11685;SDS011;5899;51.282;6.094;2023-02-04T08:28:39;18.35;;;8.80;;
11685;SDS011;5899;51.282;6.094;2023-02-04T08:31:08;17.67;;;9.05;;
11685;SDS011;5899;51.282;6.094;2023-02-04T08:33:38;22.70;;;9.45;;
11685;SDS011;5899;51.282;6.094;2023-02-04T08:36:05;19.83;;;7.97;;
11685;SDS011;5899;51.282;6.094;2023-02-04T08:38:38;29.53;;;9.57;;
11685;SDS011;5899;51.282;6.094;2023-02-04T08:41:11;22.00;;;9.63;;
11685;SDS011;5899;51.282;6.094;2023-02-04T08:43:43;19.35;;;9.23;;
11685;SDS011;5899;51.282;6.094;2023-02-04T08:46:16;18.88;;;8.85;;
11685;SDS011;5899;51.282;6.094;2023-02-04T08:48:52;20.17;;;9.85;;
11685;SDS011;5899;51.282;6.094;2023-02-04T08:51:26;21.85;;;9.50;;
11685;SDS011;5899;51.282;6.094;2023-02-04T08:53:58;19.45;;;9.43;;
11685;SDS011;5899;51.282;6.094;2023-02-04T08:56:34;19.48;;;8.93;;
11685;SDS011;5899;51.282;6.094;2023-02-04T08:59:20;16.42;;;8.43;;
11685;SDS011;5899;51.282;6.094;2023-02-04T09:01:52;17.77;;;8.00;;
11685;SDS011;5899;51.282;6.094;2023-02-04T09:04:29;21.65;;;9.13;;
11685;SDS011;5899;51.282;6.094;2023-02-04T09:06:59;20.13;;;8.90;;
11685;SDS011;5899;51.282;6.094;2023-02-04T09:09:42;18.50;;;8.98;;
11685;SDS011;5899;51.282;6.094;2023-02-04T09:12:09;17.83;;;9.02;;
11685;SDS011;5899;51.282;6.094;2023-02-04T09:14:47;18.48;;;9.20;;
11685;SDS011;5899;51.282;6.094;2023-02-04T09:17:21;20.23;;;9.70;;
11685;SDS011;5899;51.282;6.094;2023-02-04T09:19:47;17.20;;;9.03;;
11685;SDS011;5899;51.282;6.094;2023-02-04T09:22:14;19.27;;;9.07;;
11685;SDS011;5899;51.282;6.094;2023-02-04T09:24:49;17.57;;;8.97;;
11685;SDS011;5899;51.282;6.094;2023-02-04T09:27:27;21.77;;;9.63;;
11685;SDS011;5899;51.282;6.094;2023-02-04T09:30:00;17.80;;;9.35;;
11685;SDS011;5899;51.282;6.094;2023-02-04T09:32:28;22.58;;;9.70;;
11685;SDS011;5899;51.282;6.094;2023-02-04T09:35:00;20.40;;;10.57;;
11685;SDS011;5899;51.282;6.094;2023-02-04T09:37:33;17.38;;;9.55;;
11685;SDS011;5899;51.282;6.094;2023-02-04T09:40:00;24.88;;;9.50;;
11685;SDS011;5899;51.282;6.094;2023-02-04T09:42:29;19.33;;;9.57;;
11685;SDS011;5899;51.282;6.094;2023-02-04T09:44:57;19.65;;;9.73;;
11685;SDS011;5899;51.282;6.094;2023-02-04T09:47:28;18.52;;;9.85;;
11685;SDS011;5899;51.282;6.094;2023-02-04T09:49:55;20.35;;;9.30;;
11685;SDS011;5899;51.282;6.094;2023-02-04T09:52:28;18.58;;;9.40;;
11685;SDS011;5899;51.282;6.094;2023-02-04T09:54:54;21.25;;;10.18;;
11685;SDS011;5899;51.282;6.094;2023-02-04T09:57:21;22.00;;;9.70;;
11685;SDS011;5899;51.282;6.094;2023-02-04T09:59:48;22.33;;;10.35;;
11685;SDS011;5899;51.282;6.094;2023-02-04T10:02:21;18.58;;;9.35;;
11685;SDS011;5899;51.282;6.094;2023-02-04T10:04:56;20.88;;;9.63;;
11685;SDS011;5899;51.282;6.094;2023-02-04T10:07:23;19.27;;;9.35;;
11685;SDS011;5899;51.282;6.094;2023-02-04T10:09:51;21.58;;;9.77;;
11685;SDS011;5899;51.282;6.094;2023-02-04T10:12:19;25.60;;;10.90;;
11685;SDS011;5899;51.282;6.094;2023-02-04T10:14:49;17.92;;;9.02;;
11685;SDS011;5899;51.282;6.094;2023-02-04T10:17:21;15.65;;;8.50;;
11685;SDS011;5899;51.282;6.094;2023-02-04T10:19:58;16.00;;;8.57;;
11685;SDS011;5899;51.282;6.094;2023-02-04T10:22:29;22.33;;;9.35;;
11685;SDS011;5899;51.282;6.094;2023-02-04T10:24:56;18.45;;;9.60;;
11685;SDS011;5899;51.282;6.094;2023-02-04T10:27:23;21.88;;;9.90;;
11685;SDS011;5899;51.282;6.094;2023-02-04T10:29:56;19.65;;;9.70;;
11685;SDS011;5899;51.282;6.094;2023-02-04T10:32:29;20.57;;;9.50;;
11685;SDS011;5899;51.282;6.094;2023-02-04T10:34:58;16.80;;;9.10;;
11685;SDS011;5899;51.282;6.094;2023-02-04T10:37:27;23.25;;;9.07;;
11685;SDS011;5899;51.282;6.094;2023-02-04T10:39:54;19.13;;;9.63;;
11685;SDS011;5899;51.282;6.094;2023-02-04T10:42:21;23.40;;;9.80;;
11685;SDS011;5899;51.282;6.094;2023-02-04T10:44:48;21.38;;;9.40;;
11685;SDS011;5899;51.282;6.094;2023-02-04T10:47:16;20.30;;;9.30;;
11685;SDS011;5899;51.282;6.094;2023-02-04T10:49:50;23.73;;;9.45;;
11685;SDS011;5899;51.282;6.094;2023-02-04T10:52:21;20.08;;;8.63;;
11685;SDS011;5899;51.282;6.094;2023-02-04T10:54:48;20.23;;;8.35;;
11685;SDS011;5899;51.282;6.094;2023-02-04T10:57:17;19.23;;;8.32;;
11685;SDS011;5899;51.282;6.094;2023-02-04T10:59:45;20.17;;;8.10;;
11685;SDS011;5899;51.282;6.094;2023-02-04T11:05:00;25.63;;;8.43;;
11685;SDS011;5899;51.282;6.094;2023-02-04T11:07:28;18.63;;;8.95;;
11685;SDS011;5899;51.282;6.094;2023-02-04T11:09:56;16.95;;;7.95;;
11685;SDS011;5899;51.282;6.094;2023-02-04T11:12:35;17.43;;;7.60;;
11685;SDS011;5899;51.282;6.094;2023-02-04T11:15:01;18.63;;;7.33;;
11685;SDS011;5899;51.282;6.094;2023-02-04T11:17:28;15.90;;;6.68;;
11685;SDS011;5899;51.282;6.094;2023-02-04T11:19:56;15.82;;;7.10;;
11685;SDS011;5899;51.282;6.094;2023-02-04T11:22:35;15.45;;;6.72;;
11685;SDS011;5899;51.282;6.094;2023-02-04T11:25:03;19.67;;;7.32;;
11685;SDS011;5899;51.282;6.094;2023-02-04T11:27:37;14.95;;;6.80;;
11685;SDS011;5899;51.282;6.094;2023-02-04T11:30:04;21.30;;;8.50;;
11685;SDS011;5899;51.282;6.094;2023-02-04T11:32:32;19.55;;;8.30;;
11685;SDS011;5899;51.282;6.094;2023-02-04T11:35:06;18.50;;;7.47;;
11685;SDS011;5899;51.282;6.094;2023-02-04T11:37:34;18.60;;;7.03;;
11685;SDS011;5899;51.282;6.094;2023-02-04T11:42:52;19.53;;;7.90;;
11685;SDS011;5899;51.282;6.094;2023-02-04T11:45:23;18.23;;;7.07;;
11685;SDS011;5899;51.282;6.094;2023-02-04T11:47:49;18.92;;;7.15;;
11685;SDS011;5899;51.282;6.094;2023-02-04T11:50:19;18.92;;;7.43;;
11685;SDS011;5899;51.282;6.094;2023-02-04T11:52:46;19.20;;;7.47;;
11685;SDS011;5899;51.282;6.094;2023-02-04T11:55:12;17.45;;;6.95;;
11685;SDS011;5899;51.282;6.094;2023-02-04T11:57:39;18.30;;;6.85;;
11685;SDS011;5899;51.282;6.094;2023-02-04T12:00:14;17.13;;;6.68;;
11685;SDS011;5899;51.282;6.094;2023-02-04T12:02:43;19.85;;;7.65;;
11685;SDS011;5899;51.282;6.094;2023-02-04T12:05:11;16.02;;;6.15;;
11685;SDS011;5899;51.282;6.094;2023-02-04T12:07:38;18.50;;;6.93;;
11685;SDS011;5899;51.282;6.094;2023-02-04T12:10:12;16.35;;;6.50;;
11685;SDS011;5899;51.282;6.094;2023-02-04T12:12:47;17.40;;;5.93;;
11685;SDS011;5899;51.282;6.094;2023-02-04T12:15:16;22.63;;;7.57;;
11685;SDS011;5899;51.282;6.094;2023-02-04T12:17:59;15.57;;;6.50;;
11685;SDS011;5899;51.282;6.094;2023-02-04T12:20:25;17.42;;;7.43;;
11685;SDS011;5899;51.282;6.094;2023-02-04T12:22:54;17.40;;;6.30;;
11685;SDS011;5899;51.282;6.094;2023-02-04T12:25:20;15.48;;;5.47;;
11685;SDS011;5899;51.282;6.094;2023-02-04T12:27:47;19.27;;;7.28;;
11685;SDS011;5899;51.282;6.094;2023-02-04T12:30:17;14.85;;;5.63;;
11685;SDS011;5899;51.282;6.094;2023-02-04T12:32:47;15.02;;;5.25;;
11685;SDS011;5899;51.282;6.094;2023-02-04T12:35:17;15.75;;;5.30;;
11685;SDS011;5899;51.282;6.094;2023-02-04T12:37:44;16.85;;;5.53;;
11685;SDS011;5899;51.282;6.094;2023-02-04T12:42:55;16.80;;;5.57;;
11685;SDS011;5899;51.282;6.094;2023-02-04T12:45:24;14.73;;;5.40;;
11685;SDS011;5899;51.282;6.094;2023-02-04T12:47:53;15.18;;;4.97;;
11685;SDS011;5899;51.282;6.094;2023-02-04T12:50:19;15.48;;;4.93;;
11685;SDS011;5899;51.282;6.094;2023-02-04T12:52:51;15.35;;;6.65;;
11685;SDS011;5899;51.282;6.094;2023-02-04T12:55:22;15.77;;;5.43;;
11685;SDS011;5899;51.282;6.094;2023-02-04T12:57:50;16.48;;;5.30;;
11685;SDS011;5899;51.282;6.094;2023-02-04T13:00:20;15.52;;;5.57;;
11685;SDS011;5899;51.282;6.094;2023-02-04T13:02:50;15.30;;;5.97;;
11685;SDS011;5899;51.282;6.094;2023-02-04T13:05:19;17.10;;;6.07;;
11685;SDS011;5899;51.282;6.094;2023-02-04T13:07:52;15.52;;;5.68;;
11685;SDS011;5899;51.282;6.094;2023-02-04T13:10:19;17.88;;;6.15;;
11685;SDS011;5899;51.282;6.094;2023-02-04T13:12:48;13.88;;;4.90;;
11685;SDS011;5899;51.282;6.094;2023-02-04T13:15:15;20.27;;;5.67;;
11685;SDS011;5899;51.282;6.094;2023-02-04T13:17:41;12.18;;;5.25;;
11685;SDS011;5899;51.282;6.094;2023-02-04T13:20:12;12.73;;;4.30;;
11685;SDS011;5899;51.282;6.094;2023-02-04T13:22:39;11.93;;;4.32;;
11685;SDS011;5899;51.282;6.094;2023-02-04T13:25:05;14.25;;;4.45;;
11685;SDS011;5899;51.282;6.094;2023-02-04T13:27:36;12.55;;;4.13;;
11685;SDS011;5899;51.282;6.094;2023-02-04T13:30:06;14.07;;;4.10;;
11685;SDS011;5899;51.282;6.094;2023-02-04T13:32:37;16.13;;;4.53;;
11685;SDS011;5899;51.282;6.094;2023-02-04T13:35:08;16.55;;;5.25;;
11685;SDS011;5899;51.282;6.094;2023-02-04T13:37:43;14.95;;;4.93;;
11685;SDS011;5899;51.282;6.094;2023-02-04T13:40:31;18.73;;;5.80;;
11685;SDS011;5899;51.282;6.094;2023-02-04T13:43:00;16.27;;;5.60;;
11685;SDS011;5899;51.282;6.094;2023-02-04T13:45:34;13.13;;;4.70;;
11685;SDS011;5899;51.282;6.094;2023-02-04T13:48:13;14.32;;;4.88;;
11685;SDS011;5899;51.282;6.094;2023-02-04T13:50:51;12.48;;;4.82;;
11685;SDS011;5899;51.282;6.094;2023-02-04T13:56:05;12.25;;;4.85;;
11685;SDS011;5899;51.282;6.094;2023-02-04T13:58:32;18.73;;;5.50;;
11685;SDS011;5899;51.282;6.094;2023-02-04T14:00:59;15.35;;;5.57;;
11685;SDS011;5899;51.282;6.094;2023-02-04T14:03:28;11.85;;;4.90;;
11685;SDS011;5899;51.282;6.094;2023-02-04T14:05:55;12.45;;;4.43;;
11685;SDS011;5899;51.282;6.094;2023-02-04T14:08:26;13.32;;;4.70;;
11685;SDS011;5899;51.282;6.094;2023-02-04T14:11:02;13.23;;;5.38;;
11685;SDS011;5899;51.282;6.094;2023-02-04T14:13:34;14.07;;;4.72;;
11685;SDS011;5899;51.282;6.094;2023-02-04T14:16:14;14.05;;;4.70;;
11685;SDS011;5899;51.282;6.094;2023-02-04T14:18:40;11.35;;;4.50;;
11685;SDS011;5899;51.282;6.094;2023-02-04T14:21:07;14.88;;;5.13;;
11685;SDS011;5899;51.282;6.094;2023-02-04T14:23:33;14.43;;;5.47;;
11685;SDS011;5899;51.282;6.094;2023-02-04T14:26:02;16.02;;;4.95;;
11685;SDS011;5899;51.282;6.094;2023-02-04T14:28:32;14.25;;;4.88;;
11685;SDS011;5899;51.282;6.094;2023-02-04T14:30:59;13.27;;;4.45;;
11685;SDS011;5899;51.282;6.094;2023-02-04T14:33:27;13.32;;;4.45;;
11685;SDS011;5899;51.282;6.094;2023-02-04T14:35:57;12.30;;;4.93;;
11685;SDS011;5899;51.282;6.094;2023-02-04T14:38:23;13.07;;;5.28;;
11685;SDS011;5899;51.282;6.094;2023-02-04T14:40:59;12.82;;;4.80;;
11685;SDS011;5899;51.282;6.094;2023-02-04T14:43:30;11.70;;;4.40;;
11685;SDS011;5899;51.282;6.094;2023-02-04T14:46:02;13.25;;;4.85;;
11685;SDS011;5899;51.282;6.094;2023-02-04T14:48:29;11.95;;;4.53;;
11685;SDS011;5899;51.282;6.094;2023-02-04T14:50:56;12.10;;;4.50;;
11685;SDS011;5899;51.282;6.094;2023-02-04T14:53:22;14.23;;;4.88;;
11685;SDS011;5899;51.282;6.094;2023-02-04T14:55:49;12.80;;;4.75;;
11685;SDS011;5899;51.282;6.094;2023-02-04T14:58:17;11.63;;;4.50;;
11685;SDS011;5899;51.282;6.094;2023-02-04T15:00:43;13.15;;;4.75;;
11685;SDS011;5899;51.282;6.094;2023-02-04T15:03:12;12.15;;;4.18;;
11685;SDS011;5899;51.282;6.094;2023-02-04T15:05:38;15.70;;;4.68;;
11685;SDS011;5899;51.282;6.094;2023-02-04T15:08:15;13.55;;;4.53;;
11685;SDS011;5899;51.282;6.094;2023-02-04T15:10:43;16.63;;;4.80;;
11685;SDS011;5899;51.282;6.094;2023-02-04T15:13:10;16.43;;;5.03;;
11685;SDS011;5899;51.282;6.094;2023-02-04T15:16:00;10.02;;;4.40;;
11685;SDS011;5899;51.282;6.094;2023-02-04T15:18:28;14.93;;;4.65;;
11685;SDS011;5899;51.282;6.094;2023-02-04T15:20:54;17.23;;;4.68;;
11685;SDS011;5899;51.282;6.094;2023-02-04T15:23:25;11.98;;;5.13;;
11685;SDS011;5899;51.282;6.094;2023-02-04T15:25:51;13.65;;;4.88;;
11685;SDS011;5899;51.282;6.094;2023-02-04T15:28:24;14.88;;;4.78;;
11685;SDS011;5899;51.282;6.094;2023-02-04T15:30:53;10.55;;;4.75;;
11685;SDS011;5899;51.282;6.094;2023-02-04T15:33:21;11.27;;;4.20;;
11685;SDS011;5899;51.282;6.094;2023-02-04T15:35:49;12.07;;;4.32;;
11685;SDS011;5899;51.282;6.094;2023-02-04T15:38:18;16.40;;;5.28;;